createdAt,value
2023-06-05T00:00:10.769Z,9.85
2023-06-05T00:02:42.722Z,9.75
2023-06-05T00:05:12.843Z,9.82
2023-06-05T00:07:42.117Z,9.57
2023-06-05T00:10:11.270Z,9.63
2023-06-05T00:12:39.892Z,9.50
2023-06-05T00:15:09.393Z,9.35
2023-06-05T00:17:39.007Z,9.26
2023-06-05T00:20:11.328Z,9.57
2023-06-05T00:22:45.659Z,9.75
2023-06-05T00:25:14.444Z,9.64
2023-06-05T00:27:43.191Z,9.49
2023-06-05T00:30:12.291Z,9.70
2023-06-05T00:32:40.980Z,9.76
2023-06-05T00:35:11.342Z,9.81
2023-06-05T00:37:41.517Z,10.14
2023-06-05T00:40:10.783Z,9.75
2023-06-05T00:42:39.368Z,9.55
2023-06-05T00:45:10.308Z,10.09
2023-06-05T00:47:40.443Z,10.26
2023-06-05T00:50:12.940Z,10.43
2023-06-05T00:52:44.056Z,10.42
2023-06-05T00:55:13.271Z,9.82
2023-06-05T00:57:42.268Z,9.97
2023-06-05T01:00:13.816Z,9.68
2023-06-05T01:02:43.971Z,10.07
2023-06-05T01:05:12.811Z,10.03
2023-06-05T01:07:43.297Z,10.10
2023-06-05T01:10:12.894Z,10.07
2023-06-05T01:12:47.008Z,10.52
2023-06-05T01:15:17.518Z,10.79
2023-06-05T01:17:48.713Z,10.91
2023-06-05T01:20:21.378Z,10.86
2023-06-05T01:22:53.627Z,10.71
2023-06-05T01:25:24.276Z,10.76
2023-06-05T01:27:58.747Z,10.80
2023-06-05T01:30:33.042Z,11.01
2023-06-05T01:33:05.701Z,10.63
2023-06-05T01:35:38.224Z,10.43
2023-06-05T01:38:10.898Z,10.75
2023-06-05T01:40:41.035Z,10.61
2023-06-05T01:43:12.025Z,10.39
2023-06-05T01:45:42.591Z,10.77
2023-06-05T01:48:12.215Z,10.50
2023-06-05T01:50:43.548Z,10.38
2023-06-05T01:53:14.000Z,10.59
2023-06-05T01:55:42.793Z,10.66
2023-06-05T01:58:11.840Z,10.89
2023-06-05T02:00:40.443Z,10.99
2023-06-05T02:03:09.224Z,10.75
2023-06-05T02:05:37.714Z,10.92
2023-06-05T02:08:07.088Z,10.87
2023-06-05T02:10:38.572Z,10.88
2023-06-05T02:13:07.400Z,10.62
2023-06-05T02:15:36.967Z,11.06
2023-06-05T02:18:09.413Z,10.99
2023-06-05T02:20:38.473Z,10.82
2023-06-05T02:23:07.965Z,11.22
2023-06-05T02:25:38.311Z,11.27
2023-06-05T02:28:07.104Z,11.32
2023-06-05T02:30:35.771Z,11.28
2023-06-05T02:33:04.987Z,11.57
2023-06-05T02:35:36.960Z,11.64
2023-06-05T02:38:07.765Z,11.77
2023-06-05T02:40:37.897Z,11.79
2023-06-05T02:43:06.846Z,11.83
2023-06-05T02:45:35.944Z,12.34
2023-06-05T02:48:05.740Z,12.31
2023-06-05T02:50:34.786Z,12.49
2023-06-05T02:53:06.913Z,13.09
2023-06-05T02:55:38.972Z,12.73
2023-06-05T02:58:14.130Z,12.63
2023-06-05T03:00:51.995Z,12.72
2023-06-05T03:03:27.207Z,12.61
2023-06-05T03:05:56.914Z,12.45
2023-06-05T03:08:28.057Z,12.62
2023-06-05T03:10:59.956Z,12.45
2023-06-05T03:13:28.916Z,12.59
2023-06-05T03:15:59.210Z,12.77
2023-06-05T03:18:31.970Z,12.98
2023-06-05T03:21:24.197Z,12.88
2023-06-05T03:23:53.491Z,13.18
2023-06-05T03:26:27.397Z,13.10
2023-06-05T03:28:56.924Z,13.60
2023-06-05T03:31:26.187Z,13.63
2023-06-05T03:33:54.948Z,14.03
2023-06-05T03:36:24.201Z,14.67
2023-06-05T03:38:53.766Z,14.50
2023-06-05T03:41:23.815Z,15.04
2023-06-05T03:43:53.050Z,15.11
2023-06-05T03:46:25.773Z,15.19
2023-06-05T03:48:57.435Z,15.14
2023-06-05T03:51:31.107Z,14.98
2023-06-05T03:54:00.924Z,14.67
2023-06-05T03:56:40.915Z,14.89
2023-06-05T03:59:22.274Z,15.46
2023-06-05T04:01:59.250Z,15.51
2023-06-05T04:04:27.987Z,15.59
2023-06-05T04:07:01.750Z,15.65
2023-06-05T04:09:32.647Z,15.47
2023-06-05T04:12:02.866Z,15.59
2023-06-05T04:14:32.940Z,15.81
2023-06-05T04:17:01.758Z,16.01
2023-06-05T04:19:30.456Z,16.71
2023-06-05T04:22:00.541Z,17.11
2023-06-05T04:24:30.611Z,16.92
2023-06-05T04:27:01.969Z,16.63
2023-06-05T04:29:33.615Z,16.45
2023-06-05T04:32:28.318Z,16.12
2023-06-05T04:34:57.380Z,16.40
2023-06-05T04:37:26.109Z,16.21
2023-06-05T04:39:56.310Z,16.45
2023-06-05T04:42:25.067Z,15.95
2023-06-05T04:45:02.891Z,15.81
2023-06-05T04:47:34.627Z,16.05
2023-06-05T04:50:05.498Z,15.80
2023-06-05T04:52:37.848Z,15.85
2023-06-05T04:55:07.562Z,15.37
2023-06-05T04:57:37.737Z,15.35
2023-06-05T05:00:12.356Z,15.49
2023-06-05T05:02:41.131Z,15.38
2023-06-05T05:05:10.359Z,15.93
2023-06-05T05:07:42.225Z,16.51
2023-06-05T05:10:11.863Z,16.74
2023-06-05T05:12:43.471Z,17.29
2023-06-05T05:15:14.353Z,17.66
2023-06-05T05:17:53.424Z,18.35
2023-06-05T05:20:27.016Z,17.90
2023-06-05T05:22:57.172Z,18.35
2023-06-05T05:25:52.032Z,17.87
2023-06-05T05:28:21.320Z,17.49
2023-06-05T05:30:54.702Z,16.62
2023-06-05T05:33:24.418Z,16.57
2023-06-05T05:35:55.430Z,15.94
2023-06-05T05:38:24.630Z,16.44
2023-06-05T05:40:53.607Z,15.54
2023-06-05T05:43:30.242Z,15.74
2023-06-05T05:46:02.315Z,15.46
2023-06-05T05:48:34.095Z,15.31
2023-06-05T05:51:08.587Z,15.32
2023-06-05T05:53:40.445Z,15.61
2023-06-05T05:56:11.954Z,15.88
2023-06-05T05:58:47.567Z,16.75
2023-06-05T06:01:18.199Z,16.60
2023-06-05T06:03:46.929Z,16.14
2023-06-05T06:06:26.415Z,16.08
2023-06-05T06:09:06.304Z,16.05
2023-06-05T06:12:07.203Z,16.20
2023-06-05T06:14:42.965Z,16.34
2023-06-05T06:17:14.034Z,16.60
2023-06-05T06:19:43.478Z,16.25
2023-06-05T06:22:15.334Z,15.96
2023-06-05T06:24:47.449Z,15.94
2023-06-05T06:27:33.917Z,15.71
2023-06-05T06:30:04.202Z,15.53
2023-06-05T06:32:37.022Z,15.41
2023-06-05T06:35:07.575Z,15.20
2023-06-05T06:37:37.125Z,15.31
2023-06-05T06:40:11.037Z,14.73
2023-06-05T06:42:40.146Z,15.04
2023-06-05T06:45:18.841Z,15.86
2023-06-05T06:48:05.815Z,15.58
2023-06-05T06:50:36.029Z,15.55
2023-06-05T06:53:05.080Z,15.64
2023-06-05T06:55:34.244Z,15.48
2023-06-05T06:58:02.956Z,15.17
2023-06-05T07:00:31.617Z,15.38
2023-06-05T07:03:01.623Z,16.24
2023-06-05T07:05:38.983Z,16.11
2023-06-05T07:08:12.630Z,16.35
2023-06-05T07:10:43.492Z,16.33
2023-06-05T07:13:12.537Z,17.04
2023-06-05T07:15:41.125Z,17.17
2023-06-05T07:18:42.054Z,16.86
2023-06-05T07:21:13.748Z,17.02
2023-06-05T07:23:43.324Z,17.02
2023-06-05T07:26:19.807Z,16.34
2023-06-05T07:28:49.422Z,17.32
2023-06-05T07:31:18.598Z,17.30
2023-06-05T07:33:48.742Z,17.01
2023-06-05T07:36:17.724Z,17.27
2023-06-05T07:38:46.318Z,17.54
2023-06-05T07:41:14.807Z,18.39
2023-06-05T07:43:43.483Z,18.38
2023-06-05T07:46:12.420Z,17.76
2023-06-05T07:48:41.025Z,17.93
2023-06-05T07:51:13.261Z,19.09
2023-06-05T07:53:42.123Z,19.08
2023-06-05T07:56:13.214Z,19.99
2023-06-05T07:58:42.885Z,19.88
2023-06-05T08:01:14.114Z,20.07
2023-06-05T08:03:50.082Z,20.02
2023-06-05T08:06:33.716Z,19.43
2023-06-05T08:09:13.917Z,19.70
2023-06-05T08:12:01.159Z,20.10
2023-06-05T08:14:29.802Z,20.09
2023-06-05T08:16:58.419Z,19.62
2023-06-05T08:19:26.986Z,18.33
2023-06-05T08:21:58.093Z,19.40
2023-06-05T08:24:28.301Z,20.16
2023-06-05T08:26:57.074Z,20.90
2023-06-05T08:29:25.664Z,20.28
2023-06-05T08:31:54.209Z,19.99
2023-06-05T08:34:22.680Z,19.99
2023-06-05T08:36:51.925Z,19.69
2023-06-05T08:39:21.919Z,18.64
2023-06-05T08:41:53.096Z,18.15
2023-06-05T08:44:21.674Z,18.54
2023-06-05T08:46:51.596Z,18.43
2023-06-05T08:49:25.566Z,18.67
2023-06-05T08:51:55.981Z,19.36
2023-06-05T08:54:26.961Z,19.53
2023-06-05T08:56:55.949Z,20.09
2023-06-05T08:59:26.067Z,20.67
2023-06-05T09:01:54.966Z,20.76
2023-06-05T09:04:26.533Z,21.56
2023-06-05T09:06:55.888Z,21.10
2023-06-05T09:09:26.782Z,20.02
2023-06-05T09:12:04.682Z,20.06
2023-06-05T09:14:34.047Z,20.18
2023-06-05T09:17:03.813Z,20.69
2023-06-05T09:19:42.322Z,20.15
2023-06-05T09:22:13.745Z,20.19
2023-06-05T09:24:44.946Z,20.39
2023-06-05T09:27:13.635Z,20.55
2023-06-05T09:29:44.963Z,19.59
2023-06-05T09:32:20.974Z,19.60
2023-06-05T09:35:01.041Z,19.86
2023-06-05T09:37:40.150Z,20.77
2023-06-05T09:40:16.200Z,20.72
2023-06-05T09:42:44.925Z,20.47
2023-06-05T09:45:13.468Z,20.39
2023-06-05T09:47:53.574Z,20.56
2023-06-05T09:50:25.878Z,21.21
2023-06-05T09:52:57.866Z,20.29
2023-06-05T09:55:29.640Z,20.70
2023-06-05T09:58:02.070Z,20.92
2023-06-05T10:00:31.158Z,19.41
2023-06-05T10:03:00.746Z,19.29
2023-06-05T10:05:30.177Z,18.91
2023-06-05T10:07:59.950Z,19.18
2023-06-05T10:10:31.921Z,18.33
2023-06-05T10:13:00.864Z,16.37
2023-06-05T10:15:29.996Z,16.10
2023-06-05T10:17:59.461Z,15.71
2023-06-05T10:20:28.827Z,15.64
2023-06-05T10:22:59.803Z,15.94
2023-06-05T10:25:31.514Z,14.31
2023-06-05T10:28:19.160Z,12.92
2023-06-05T10:31:23.668Z,12.51
2023-06-05T10:34:17.054Z,12.85
2023-06-05T10:37:01.033Z,14.16
2023-06-05T10:39:32.513Z,14.94
2023-06-05T10:42:02.804Z,15.13
2023-06-05T10:44:47.114Z,15.62
2023-06-05T10:47:56.212Z,16.51
2023-06-05T10:50:32.404Z,16.82
2023-06-05T10:53:01.649Z,15.96
2023-06-05T10:55:44.508Z,16.01
2023-06-05T10:58:16.617Z,16.14
2023-06-05T11:01:20.716Z,17.35
2023-06-05T11:03:57.521Z,18.12
2023-06-05T11:06:26.831Z,18.17
2023-06-05T11:09:13.748Z,18.31
2023-06-05T11:12:02.395Z,18.30
2023-06-05T11:14:49.045Z,17.40
2023-06-05T11:17:34.115Z,17.50
2023-06-05T11:20:06.604Z,17.65
2023-06-05T11:22:35.505Z,17.81
2023-06-05T11:25:22.658Z,17.97
2023-06-05T11:27:53.480Z,18.27
2023-06-05T11:30:39.141Z,17.90
2023-06-05T11:33:15.910Z,18.16
2023-06-05T11:35:46.553Z,18.07
2023-06-05T11:38:18.803Z,18.17
2023-06-05T11:40:49.771Z,19.03
2023-06-05T11:43:18.663Z,18.82
2023-06-05T11:45:54.316Z,19.28
2023-06-05T11:48:23.699Z,19.00
2023-06-05T11:50:57.745Z,19.16
2023-06-05T11:53:27.292Z,18.76
2023-06-05T11:56:07.752Z,18.20
2023-06-05T11:58:38.638Z,18.00
2023-06-05T12:01:16.002Z,17.12
2023-06-05T12:03:44.853Z,16.73
2023-06-05T12:06:14.524Z,16.49
2023-06-05T12:08:44.154Z,16.42
2023-06-05T12:11:23.882Z,16.26
2023-06-05T12:13:53.868Z,16.42
2023-06-05T12:16:34.176Z,17.21
2023-06-05T12:19:13.943Z,17.33
2023-06-05T12:21:44.195Z,17.72
2023-06-05T12:24:13.187Z,17.71
2023-06-05T12:26:55.295Z,17.63
2023-06-05T12:29:26.380Z,17.73
2023-06-05T12:31:58.902Z,17.98
2023-06-05T12:37:31.235Z,17.97
2023-06-05T12:40:01.219Z,18.10
2023-06-05T12:42:37.716Z,18.04
2023-06-05T12:45:08.811Z,18.17
2023-06-05T12:47:40.015Z,17.94
2023-06-05T12:50:13.387Z,17.89
2023-06-05T12:52:43.168Z,17.64
2023-06-05T12:55:12.302Z,18.11
2023-06-05T12:57:41.975Z,17.80
2023-06-05T13:00:14.557Z,17.67
2023-06-05T13:02:47.030Z,17.39
2023-06-05T13:05:16.880Z,17.16
2023-06-05T13:07:46.330Z,17.27
2023-06-05T13:10:15.212Z,17.72
2023-06-05T13:12:44.464Z,17.95
2023-06-05T13:15:13.405Z,17.89
2023-06-05T13:17:42.260Z,18.42
2023-06-05T13:20:14.176Z,18.75
2023-06-05T13:22:43.717Z,19.09
2023-06-05T13:25:13.452Z,19.02
2023-06-05T13:27:42.185Z,19.14
2023-06-05T13:30:11.447Z,19.22
2023-06-05T13:32:40.620Z,18.82
2023-06-05T13:35:12.206Z,18.73
2023-06-05T13:37:41.909Z,18.25
2023-06-05T13:40:12.990Z,18.25
2023-06-05T13:42:41.917Z,19.16
2023-06-05T13:45:11.849Z,19.93
2023-06-05T13:47:40.554Z,19.23
2023-06-05T13:50:09.572Z,19.21
2023-06-05T13:52:39.484Z,20.16
2023-06-05T13:55:09.450Z,19.60
2023-06-05T13:57:38.042Z,18.76
2023-06-05T14:00:07.630Z,19.52
2023-06-05T14:02:36.387Z,19.67
2023-06-05T14:05:05.230Z,19.88
2023-06-05T14:07:44.554Z,20.13
2023-06-05T14:10:19.362Z,20.11
2023-06-05T14:12:48.667Z,19.25
2023-06-05T14:15:18.847Z,19.63
2023-06-05T14:17:50.903Z,19.63
2023-06-05T14:20:20.973Z,19.47
2023-06-05T14:22:49.663Z,19.54
2023-06-05T14:25:20.234Z,20.28
2023-06-05T14:27:49.053Z,21.07
2023-06-05T14:30:17.626Z,20.48
2023-06-05T14:32:46.324Z,20.61
2023-06-05T14:35:15.110Z,20.47
2023-06-05T14:37:43.514Z,20.60
2023-06-05T14:40:12.739Z,19.83
2023-06-05T14:42:42.745Z,20.15
2023-06-05T14:45:12.269Z,20.09
2023-06-05T14:47:40.977Z,19.80
2023-06-05T14:50:10.313Z,19.69
2023-06-05T14:52:39.449Z,19.65
2023-06-05T14:55:10.379Z,19.87
2023-06-05T14:57:39.104Z,20.20
2023-06-05T15:00:10.351Z,20.25
2023-06-05T15:02:39.030Z,19.80
2023-06-05T15:05:09.018Z,19.53
2023-06-05T15:07:39.089Z,19.72
2023-06-05T15:10:09.723Z,19.89
2023-06-05T15:12:39.089Z,19.80
2023-06-05T15:15:20.587Z,20.30
2023-06-05T15:17:50.628Z,19.18
2023-06-05T15:20:20.468Z,19.73
2023-06-05T15:23:00.393Z,19.61
2023-06-05T15:25:41.163Z,19.64
2023-06-05T15:28:09.727Z,19.55
2023-06-05T15:30:41.470Z,19.46
2023-06-05T15:33:10.128Z,19.26
2023-06-05T15:35:43.835Z,19.07
2023-06-05T15:38:13.251Z,18.92
2023-06-05T15:40:45.161Z,19.09
2023-06-05T15:43:14.207Z,18.63
2023-06-05T15:45:46.639Z,18.77
2023-06-05T15:48:17.789Z,18.67
2023-06-05T15:50:46.509Z,18.87
2023-06-05T15:53:15.039Z,18.51
2023-06-05T15:55:43.532Z,18.17
2023-06-05T15:58:12.878Z,18.60
2023-06-05T16:00:41.367Z,18.50
2023-06-05T16:03:12.742Z,18.64
2023-06-05T16:05:42.059Z,17.89
2023-06-05T16:08:11.963Z,18.07
2023-06-05T16:10:40.569Z,17.86
2023-06-05T16:13:12.290Z,17.99
2023-06-05T16:15:42.766Z,18.21
2023-06-05T16:18:14.999Z,18.03
2023-06-05T16:20:43.685Z,18.30
2023-06-05T16:23:12.435Z,18.57
2023-06-05T16:25:41.507Z,18.13
2023-06-05T16:28:10.056Z,18.25
2023-06-05T16:30:38.524Z,18.47
2023-06-05T16:33:07.142Z,18.13
2023-06-05T16:35:37.119Z,18.01
2023-06-05T16:38:07.012Z,18.01
2023-06-05T16:40:41.324Z,17.66
2023-06-05T16:43:12.349Z,17.39
2023-06-05T16:45:43.902Z,17.29
2023-06-05T16:48:14.116Z,17.33
2023-06-05T16:50:47.242Z,17.34
2023-06-05T16:53:15.946Z,17.43
2023-06-05T16:55:44.572Z,17.60
2023-06-05T16:58:17.792Z,17.70
2023-06-05T17:00:50.766Z,17.78
2023-06-05T17:03:19.653Z,17.54
2023-06-05T17:05:52.511Z,17.55
2023-06-05T17:08:21.717Z,17.44
2023-06-05T17:10:50.072Z,18.34
2023-06-05T17:13:18.635Z,17.95
2023-06-05T17:15:48.516Z,17.57
2023-06-05T17:18:17.230Z,17.37
2023-06-05T17:20:45.894Z,17.11
2023-06-05T17:23:15.908Z,16.81
2023-06-05T17:25:47.817Z,16.89
2023-06-05T17:28:24.355Z,16.81
2023-06-05T17:30:53.015Z,16.72
2023-06-05T17:33:21.870Z,17.00
2023-06-05T17:35:50.652Z,17.51
2023-06-05T17:38:20.727Z,17.31
2023-06-05T17:40:57.290Z,17.02
2023-06-05T17:43:26.056Z,16.89
2023-06-05T17:45:54.575Z,16.90
2023-06-05T17:48:24.445Z,16.64
2023-06-05T17:50:53.372Z,16.39
2023-06-05T17:53:25.063Z,16.68
2023-06-05T17:55:56.380Z,16.29
2023-06-05T17:58:25.024Z,16.02
2023-06-05T18:00:54.284Z,16.14
2023-06-05T18:03:24.151Z,16.09
2023-06-05T18:05:56.058Z,16.01
2023-06-05T18:08:26.137Z,15.94
2023-06-05T18:10:54.764Z,15.73
2023-06-05T18:13:23.339Z,15.53
2023-06-05T18:15:52.007Z,15.43
2023-06-05T18:18:26.968Z,15.32
2023-06-05T18:21:00.163Z,15.19
2023-06-05T18:23:33.576Z,15.16
2023-06-05T18:26:02.382Z,15.04
2023-06-05T18:28:31.381Z,14.96
2023-06-05T18:31:06.379Z,14.75
2023-06-05T18:33:52.959Z,14.83
2023-06-05T18:36:43.226Z,14.72
2023-06-05T18:39:16.093Z,14.84
2023-06-05T18:41:46.090Z,15.04
2023-06-05T18:44:15.685Z,14.93
2023-06-05T18:46:44.531Z,15.14
2023-06-05T18:49:12.990Z,15.91
2023-06-05T18:51:49.333Z,15.39
2023-06-05T18:54:24.748Z,15.08
2023-06-05T18:56:53.667Z,14.77
2023-06-05T18:59:22.500Z,14.85
2023-06-05T19:01:52.405Z,15.21
2023-06-05T19:04:21.180Z,15.36
2023-06-05T19:06:49.972Z,15.98
2023-06-05T19:09:18.360Z,16.82
2023-06-05T19:11:51.683Z,16.55
2023-06-05T19:14:20.225Z,16.66
2023-06-05T19:16:48.906Z,16.75
2023-06-05T19:19:17.342Z,17.14
2023-06-05T19:21:45.981Z,16.85
2023-06-05T19:24:14.703Z,16.65
2023-06-05T19:26:43.486Z,16.67
2023-06-05T19:29:13.701Z,16.79
2023-06-05T19:31:42.388Z,16.61
2023-06-05T19:34:11.316Z,16.51
2023-06-05T19:36:39.730Z,17.00
2023-06-05T19:39:08.430Z,16.30
2023-06-05T19:41:37.208Z,16.24
2023-06-05T19:44:06.263Z,15.82
2023-06-05T19:46:39.322Z,15.52
2023-06-05T19:49:10.031Z,15.26
2023-06-05T19:51:39.061Z,15.05
2023-06-05T19:54:08.378Z,15.21
2023-06-05T19:56:37.171Z,15.21
2023-06-05T19:59:05.568Z,15.37
2023-06-05T20:01:39.018Z,14.92
2023-06-05T20:04:09.831Z,14.52
2023-06-05T20:06:38.442Z,14.54
2023-06-05T20:09:07.293Z,14.27
2023-06-05T20:11:35.909Z,14.60
2023-06-05T20:14:04.587Z,14.65
2023-06-05T20:16:33.161Z,14.31
2023-06-05T20:19:01.995Z,14.55
2023-06-05T20:21:35.436Z,14.54
2023-06-05T20:24:08.341Z,15.28
2023-06-05T20:26:37.304Z,15.63
2023-06-05T20:29:08.680Z,15.70
2023-06-05T20:31:37.532Z,15.75
2023-06-05T20:34:05.764Z,15.70
2023-06-05T20:36:35.712Z,14.71
2023-06-05T20:39:04.781Z,14.50
2023-06-05T20:41:33.324Z,14.20
2023-06-05T20:44:01.839Z,13.95
2023-06-05T20:46:30.674Z,14.44
2023-06-05T20:49:02.132Z,14.51
2023-06-05T20:51:31.039Z,14.39
2023-06-05T20:54:01.049Z,14.31
2023-06-05T20:56:30.720Z,14.47
2023-06-05T20:58:59.543Z,14.61
2023-06-05T21:01:30.494Z,14.55
2023-06-05T21:04:00.472Z,13.96
2023-06-05T21:06:29.124Z,13.84
2023-06-05T21:08:57.879Z,13.93
2023-06-05T21:11:28.052Z,14.17
2023-06-05T21:13:56.524Z,13.82
2023-06-05T21:16:26.594Z,14.16
2023-06-05T21:18:55.221Z,13.71
2023-06-05T21:21:23.685Z,13.61
2023-06-05T21:23:52.235Z,13.91
2023-06-05T21:26:21.727Z,13.58
2023-06-05T21:28:51.678Z,13.48
2023-06-05T21:31:20.361Z,13.62
2023-06-05T21:33:48.912Z,13.63
2023-06-05T21:36:17.410Z,13.61
2023-06-05T21:38:46.549Z,13.72
2023-06-05T21:41:16.369Z,13.52
2023-06-05T21:43:44.896Z,13.30
2023-06-05T21:46:15.098Z,13.12
2023-06-05T21:48:43.957Z,13.43
2023-06-05T21:51:12.676Z,12.99
2023-06-05T21:53:41.501Z,12.89
2023-06-05T21:56:10.089Z,12.98
2023-06-05T21:58:38.722Z,13.26
2023-06-05T22:01:07.689Z,13.23
2023-06-05T22:03:38.254Z,13.04
2023-06-05T22:06:08.146Z,12.91
2023-06-05T22:08:36.715Z,12.93
2023-06-05T22:11:05.779Z,13.51
2023-06-05T22:13:34.012Z,14.13
2023-06-05T22:16:03.467Z,14.05
2023-06-05T22:18:32.424Z,14.01
2023-06-05T22:21:02.779Z,13.95
2023-06-05T22:23:31.561Z,13.85
2023-06-05T22:25:59.995Z,13.96
2023-06-05T22:28:28.442Z,13.95
2023-06-05T22:30:57.114Z,13.87
2023-06-05T22:33:26.438Z,13.76
2023-06-05T22:35:54.958Z,13.51
2023-06-05T22:38:27.586Z,13.83
2023-06-05T22:40:56.189Z,13.86
2023-06-05T22:43:24.744Z,13.92
2023-06-05T22:45:53.312Z,13.80
2023-06-05T22:48:21.811Z,13.51
2023-06-05T22:50:54.688Z,13.47
2023-06-05T22:53:25.726Z,13.07
2023-06-05T22:55:54.448Z,12.59
2023-06-05T22:58:22.930Z,12.66
2023-06-05T23:00:53.817Z,13.09
2023-06-05T23:03:22.514Z,13.02
2023-06-05T23:05:51.151Z,12.72
2023-06-05T23:08:19.913Z,12.41
2023-06-05T23:10:49.823Z,12.24
2023-06-05T23:13:18.396Z,12.32
2023-06-05T23:15:46.828Z,11.68
2023-06-05T23:18:16.119Z,12.10
2023-06-05T23:20:44.771Z,12.40
2023-06-05T23:23:13.226Z,12.50
2023-06-05T23:25:44.492Z,12.84
2023-06-05T23:28:14.580Z,12.31
2023-06-05T23:30:43.360Z,12.66
2023-06-05T23:33:13.502Z,12.74
2023-06-05T23:35:42.472Z,12.95
2023-06-05T23:38:10.997Z,12.83
2023-06-05T23:40:39.516Z,12.62
2023-06-05T23:43:08.223Z,12.70
2023-06-05T23:45:38.351Z,13.01
2023-06-05T23:48:09.675Z,12.76
2023-06-05T23:50:38.183Z,12.81
2023-06-05T23:53:06.771Z,13.14
2023-06-05T23:55:35.270Z,13.39
2023-06-05T23:58:03.871Z,13.37
